Flight Number: EUR1565 Duration: 1:30
Departure: Olbia Costa Smeralda (LIEO) at 06:30 Distance: 542 Nm
Arrival: Luxembourg (ELLX) at 08:00 Equipment: B737

Weather Information
Olbia / Costa Smeralda, Italy (LIEO) 40-54N 009-31E 13M Jan 22, 2018 - 02:50 AM EST / 2018.01.22 0750 UTC
Wind: from the WSW (250 degrees) at 21 MPH (18 KT):0
Visibility: greater than 7 mile(s):0
Sky conditions: mostly clear Temperature: 60 F (16 C) Dew Point: 48 F (9 C) Relative Humidity: 63% Pressure (altimeter): 29.94 in. Hg (1014 hPa)
ob: LIEO 220750Z 25018KT 9999 FEW030 16/09 Q1014 cycle: 8
Sunrise: 06:43 Sunset: 16:23 (UTC)

Luxembourg / Luxembourg, Luxembourg (ELLX) 49-37N 006-13E 379M Jan 22, 2018 - 02:50 AM EST / 2018.01.22 0750 UTC
Wind: from the W (260 degrees) at 13 MPH (11 KT):0
Visibility: greater than 7 mile(s):0
Sky conditions: mostly cloudy Temperature: 44 F (7 C) Dew Point: 44 F (7 C) Relative Humidity: 100% Pressure (altimeter): 29.77 in. Hg (1008 hPa)
ob: ELLX 220750Z 26011KT 9999 BKN007 07/07 Q1008 NOSIG cycle: 8
Sunrise: 07:23 Sunset: 16:10 (UTC)

TAF:2018/01/22 07:40 TAF AMD ELLX 220700Z 2207/2312 25012KT 7000 FEW003 BKN007 TEMPO 2207/2210 3000 -DZ BR FEW002 BKN003 TEMPO 2210/2215 4500 -RA BKN004 BECMG 2220/2222 23006KT TEMPO 2223/2307 4000 BR SCT002 BKN003

Previous Pireps for this route
Date Aircraft Flight time Fuel used Landing rate On time
2016-05-16B73702.0810551-268No
(pireps marked green are flown by you)

Route map